createdAt,value
2019-03-25T00:03:43.716Z,60.41
2019-03-25T00:09:04.776Z,59.93
2019-03-25T00:14:04.385Z,60.64
2019-03-25T00:19:17.669Z,60.56
2019-03-25T00:24:37.994Z,61.12
2019-03-25T00:29:35.149Z,61.34
2019-03-25T00:34:46.770Z,61.46
2019-03-25T00:39:56.868Z,61.59
2019-03-25T00:45:07.140Z,61.51
2019-03-25T00:50:14.284Z,61.41
2019-03-25T00:55:24.151Z,61.93
2019-03-25T01:00:36.385Z,62.06
2019-03-25T01:11:15.976Z,61.97
2019-03-25T01:16:26.606Z,61.62
2019-03-25T01:21:36.502Z,61.24
2019-03-25T01:26:46.377Z,60.98
2019-03-25T01:32:00.316Z,60.88
2019-03-25T01:37:09.554Z,60.93
2019-03-25T01:42:16.533Z,61.14
2019-03-25T01:47:27.324Z,61.12
2019-03-25T01:52:42.965Z,61.08
2019-03-25T01:57:59.591Z,61.36
2019-03-25T02:03:09.652Z,61.65
2019-03-25T02:08:19.351Z,61.72
2019-03-25T02:13:26.269Z,61.60
2019-03-25T02:18:34.856Z,61.31
2019-03-25T02:23:42.702Z,61.27
2019-03-25T02:28:54.338Z,61.03
2019-03-25T02:34:06.597Z,62.02
2019-03-25T02:39:18.778Z,63.59
2019-03-25T02:44:27.288Z,63.59
2019-03-25T02:49:38.564Z,63.94
2019-03-25T02:54:48.038Z,64.67
2019-03-25T02:59:59.446Z,64.45
2019-03-25T03:05:11.172Z,64.30
2019-03-25T03:10:21.759Z,64.21
2019-03-25T03:15:35.113Z,64.01
2019-03-25T03:20:46.394Z,63.68
2019-03-25T03:25:58.165Z,63.99
2019-03-25T03:31:04.819Z,64.07
2019-03-25T03:36:16.364Z,63.84
2019-03-25T03:41:26.348Z,63.99
2019-03-25T03:46:37.555Z,63.94
2019-03-25T03:51:45.665Z,64.03
2019-03-25T03:56:57.313Z,63.79
2019-03-25T04:02:12.471Z,63.77
2019-03-25T04:07:24.636Z,63.59
2019-03-25T04:12:33.830Z,63.46
2019-03-25T04:17:43.998Z,63.10
2019-03-25T04:22:56.142Z,63.52
2019-03-25T04:28:08.785Z,63.53
2019-03-25T04:33:21.603Z,63.29
2019-03-25T04:38:31.667Z,63.10
2019-03-25T04:43:40.026Z,63.41
2019-03-25T04:48:51.270Z,63.41
2019-03-25T04:54:05.647Z,63.21
2019-03-25T04:59:18.795Z,62.87
2019-03-25T05:04:31.735Z,62.34
2019-03-25T05:09:45.077Z,62.41
2019-03-25T05:14:54.230Z,62.27
2019-03-25T05:20:03.685Z,61.83
2019-03-25T05:25:16.548Z,61.75
2019-03-25T05:30:25.501Z,61.49
2019-03-25T05:35:36.550Z,61.34
2019-03-25T05:40:47.350Z,61.09
2019-03-25T05:46:02.692Z,60.06
2019-03-25T05:51:16.932Z,60.18
2019-03-25T05:56:30.175Z,60.14
2019-03-25T06:01:39.469Z,59.71
2019-03-25T06:06:48.219Z,59.50
2019-03-25T06:11:56.880Z,59.78
2019-03-25T06:17:06.727Z,59.80
2019-03-25T06:22:15.788Z,59.67
2019-03-25T06:27:25.086Z,59.54
2019-03-25T06:32:36.752Z,59.06
2019-03-25T06:37:46.563Z,58.84
2019-03-25T06:42:59.044Z,59.10
2019-03-25T06:48:10.322Z,59.41
2019-03-25T06:53:18.369Z,59.26
2019-03-25T06:58:26.880Z,58.98
2019-03-25T07:03:33.129Z,57.94
2019-03-25T07:08:40.885Z,59.14
2019-03-25T07:13:50.904Z,60.02
2019-03-25T07:19:02.565Z,60.85
2019-03-25T07:24:12.551Z,61.52
2019-03-25T07:29:21.301Z,61.39
2019-03-25T07:34:38.114Z,61.40
2019-03-25T07:39:50.082Z,60.70
2019-03-25T07:44:59.855Z,60.55
2019-03-25T07:50:07.748Z,60.03
2019-03-25T07:55:17.987Z,60.34
2019-03-25T08:00:29.962Z,60.38
2019-03-25T08:05:37.713Z,59.74
2019-03-25T08:10:46.346Z,59.28
2019-03-25T08:15:55.090Z,59.32
2019-03-25T08:21:02.546Z,59.19
2019-03-25T08:26:13.800Z,57.87
2019-03-25T08:31:27.364Z,57.60
2019-03-25T08:36:36.679Z,55.83
2019-03-25T08:41:46.565Z,56.55
2019-03-25T08:46:58.067Z,55.87
2019-03-25T08:52:04.620Z,55.76
2019-03-25T08:57:16.865Z,54.85
2019-03-25T09:02:26.280Z,53.47
2019-03-25T09:07:39.885Z,52.20
2019-03-25T09:12:51.206Z,50.39
2019-03-25T09:17:58.687Z,49.84
2019-03-25T09:23:07.902Z,48.42
2019-03-25T09:28:24.271Z,48.67
2019-03-25T09:33:29.096Z,48.52
2019-03-25T09:38:36.274Z,47.21
2019-03-25T09:43:48.287Z,47.76
2019-03-25T09:49:00.752Z,46.49
2019-03-25T09:54:10.869Z,45.91
2019-03-25T09:59:28.002Z,46.93
2019-03-25T10:04:40.390Z,49.12
2019-03-25T10:09:49.918Z,43.95
2019-03-25T10:15:06.147Z,42.48
2019-03-25T10:20:13.927Z,40.38
2019-03-25T10:25:21.381Z,42.35
2019-03-25T10:30:30.539Z,52.12
2019-03-25T10:35:37.510Z,55.25
2019-03-25T10:40:50.063Z,51.16
2019-03-25T10:45:59.647Z,47.54
2019-03-25T10:51:09.670Z,44.62
2019-03-25T10:56:19.687Z,41.47
2019-03-25T11:01:26.502Z,40.16
2019-03-25T11:06:35.973Z,38.79
2019-03-25T11:11:46.855Z,41.34
2019-03-25T11:16:57.029Z,49.93
2019-03-25T11:22:07.714Z,54.72
2019-03-25T11:27:17.059Z,56.19
2019-03-25T11:32:26.651Z,55.38
2019-03-25T11:37:37.797Z,45.48
2019-03-25T11:42:59.165Z,41.84
2019-03-25T11:48:09.442Z,38.91
2019-03-25T11:53:16.918Z,38.97
2019-03-25T11:58:29.414Z,41.06
2019-03-25T12:03:41.167Z,43.85
2019-03-25T12:08:51.956Z,44.80
2019-03-25T12:13:59.639Z,45.31
2019-03-25T12:19:09.895Z,41.53
2019-03-25T12:24:22.283Z,43.08
2019-03-25T12:29:31.917Z,43.03
2019-03-25T12:34:40.067Z,42.28
2019-03-25T12:39:48.568Z,43.28
2019-03-25T12:45:00.258Z,45.25
2019-03-25T12:50:10.705Z,45.60
2019-03-25T12:55:20.566Z,45.69
2019-03-25T13:00:43.272Z,44.23
2019-03-25T13:05:51.681Z,45.56
2019-03-25T13:11:01.449Z,50.62
2019-03-25T13:16:08.750Z,50.22
2019-03-25T13:21:17.966Z,47.11
2019-03-25T13:26:40.590Z,44.60
2019-03-25T13:31:51.268Z,38.66
2019-03-25T13:37:02.795Z,40.08
2019-03-25T13:42:14.753Z,37.27
2019-03-25T13:47:23.843Z,41.68
2019-03-25T13:52:32.980Z,46.62
2019-03-25T13:57:40.667Z,51.08
2019-03-25T14:02:49.822Z,53.95
2019-03-25T14:07:59.942Z,54.49
2019-03-25T14:13:11.965Z,54.06
2019-03-25T14:18:21.928Z,51.68
2019-03-25T14:23:33.478Z,48.62
2019-03-25T14:28:43.277Z,41.70
2019-03-25T14:33:50.534Z,44.11
2019-03-25T14:39:02.948Z,45.33
2019-03-25T14:44:12.917Z,47.31
2019-03-25T14:49:26.491Z,43.01
2019-03-25T14:54:40.292Z,38.95
2019-03-25T14:59:50.281Z,38.63
2019-03-25T15:04:58.821Z,40.76
2019-03-25T15:10:09.507Z,44.21
2019-03-25T15:15:16.804Z,45.24
2019-03-25T15:20:25.895Z,46.61
2019-03-25T15:25:35.162Z,46.35
2019-03-25T15:30:45.819Z,44.74
2019-03-25T15:35:53.522Z,45.01
2019-03-25T15:41:06.391Z,46.31
2019-03-25T15:46:18.251Z,46.78
2019-03-25T15:51:30.984Z,46.62
2019-03-25T15:56:41.790Z,47.32
2019-03-25T16:01:55.121Z,47.11
2019-03-25T16:07:05.731Z,48.02
2019-03-25T16:12:19.044Z,48.13
2019-03-25T16:17:28.995Z,48.83
2019-03-25T16:22:43.323Z,49.95
2019-03-25T16:27:52.413Z,50.64
2019-03-25T16:33:04.173Z,50.28
2019-03-25T16:38:16.770Z,49.48
2019-03-25T16:43:31.596Z,49.37
2019-03-25T16:48:39.400Z,49.11
2019-03-25T16:53:51.112Z,48.64
2019-03-25T16:59:06.407Z,48.40
2019-03-25T17:04:16.237Z,48.70
2019-03-25T17:09:25.387Z,48.45
2019-03-25T17:14:37.860Z,49.06
2019-03-25T17:19:49.373Z,49.97
2019-03-25T17:25:00.867Z,49.91
2019-03-25T17:30:10.183Z,50.02
2019-03-25T17:35:22.601Z,49.51
2019-03-25T17:40:32.023Z,49.97
2019-03-25T17:45:45.121Z,50.30
2019-03-25T17:50:55.015Z,50.81
2019-03-25T17:56:07.910Z,51.30
2019-03-25T18:01:32.882Z,51.50
2019-03-25T18:06:44.036Z,51.96
2019-03-25T18:11:58.522Z,52.02
2019-03-25T18:17:10.999Z,52.38
2019-03-25T18:22:18.744Z,52.74
2019-03-25T18:27:30.568Z,52.83
2019-03-25T18:32:40.227Z,53.24
2019-03-25T18:37:54.798Z,53.55
2019-03-25T18:43:04.273Z,53.82
2019-03-25T18:48:14.199Z,54.09
2019-03-25T18:53:25.991Z,54.43
2019-03-25T18:58:31.378Z,54.77
2019-03-25T19:03:47.559Z,55.05
2019-03-25T19:09:00.462Z,55.34
2019-03-25T19:14:11.532Z,55.48
2019-03-25T19:19:24.584Z,55.81
2019-03-25T19:24:36.963Z,55.91
2019-03-25T19:29:48.530Z,55.89
2019-03-25T19:34:59.109Z,56.35
2019-03-25T19:42:59.758Z,56.91
2019-03-25T19:48:09.176Z,56.46
2019-03-25T19:53:19.418Z,56.92
2019-03-25T19:58:27.815Z,56.84
2019-03-25T20:03:34.713Z,56.64
2019-03-25T20:08:47.750Z,57.01
2019-03-25T20:13:59.645Z,56.85
2019-03-25T20:19:11.217Z,56.71
2019-03-25T20:24:25.519Z,56.78
2019-03-25T20:29:37.875Z,56.68
2019-03-25T20:34:46.737Z,56.61
2019-03-25T20:39:58.455Z,56.93
2019-03-25T20:45:08.202Z,57.02
2019-03-25T20:50:19.386Z,57.23
2019-03-25T20:55:32.777Z,57.12
2019-03-25T21:00:55.028Z,56.76
2019-03-25T21:06:03.389Z,56.72
2019-03-25T21:11:13.672Z,56.64
2019-03-25T21:16:23.317Z,56.37
2019-03-25T21:21:36.824Z,56.28
2019-03-25T21:26:50.750Z,56.25
2019-03-25T21:32:22.277Z,56.33
2019-03-25T21:37:39.411Z,56.41
2019-03-25T21:42:48.081Z,55.98
2019-03-25T21:47:58.360Z,55.78
2019-03-25T21:53:06.723Z,55.58
2019-03-25T21:58:27.090Z,55.37
2019-03-25T22:03:38.533Z,55.61
2019-03-25T22:08:50.107Z,55.58
2019-03-25T22:14:08.989Z,55.48
2019-03-25T22:19:16.398Z,55.47
2019-03-25T22:24:27.002Z,54.83
2019-03-25T22:29:36.408Z,55.08
2019-03-25T22:34:48.511Z,54.99
2019-03-25T22:39:57.089Z,54.69
2019-03-25T22:45:05.031Z,54.94
2019-03-25T22:50:29.232Z,55.05
2019-03-25T22:55:42.224Z,55.19
2019-03-25T23:00:55.143Z,55.40
2019-03-25T23:06:07.006Z,55.44
2019-03-25T23:11:16.028Z,55.54
2019-03-25T23:16:24.475Z,55.61
2019-03-25T23:21:31.857Z,55.68
2019-03-25T23:26:43.754Z,55.88
2019-03-25T23:31:54.360Z,55.97
2019-03-25T23:37:01.872Z,56.15
2019-03-25T23:42:10.846Z,56.13
2019-03-25T23:47:21.126Z,55.89
2019-03-25T23:52:35.467Z,55.74
2019-03-25T23:57:46.553Z,55.69
